Time;durP1;ratioP1;P1;durP2;ratioP2;P2;SDS_P1;SDS_P2;PMS_P1;PMS_P2;Temp;Humidity;BMP_temperature;BMP_pressure;BME280_temperature;BME280_humidity;BME280_pressure;Samples;Min_cycle;Max_cycle;Signal;HPM_P1;HPM_P2
2023/10/31 00:01:03;;;;;;;8.00;3.10;;;;;;;21.14;68.60;100707.21;109947;1281;21935;-66
2023/10/31 00:03:29;;;;;;;7.30;3.80;;;;;;;21.13;68.54;100702.10;109950;1278;21944;-65
2023/10/31 00:05:54;;;;;;;10.00;3.30;;;;;;;21.11;68.52;100699.51;109964;1286;22025;-59
2023/10/31 00:08:20;;;;;;;7.80;2.70;;;;;;;21.11;68.63;100700.05;109945;1286;21822;-65
2023/10/31 00:10:46;;;;;;;8.30;3.30;;;;;;;21.09;68.71;100699.77;109953;1279;21906;-65
2023/10/31 00:13:12;;;;;;;7.20;2.90;;;;;;;21.08;68.76;100702.88;109953;1280;22292;-65
2023/10/31 00:15:37;;;;;;;10.30;3.10;;;;;;;21.06;69.12;100700.45;109958;1277;21955;-60
2023/10/31 00:18:03;;;;;;;8.70;2.70;;;;;;;21.04;69.36;100699.31;109967;1284;22010;-65
2023/10/31 00:20:29;;;;;;;9.90;3.10;;;;;;;21.02;69.47;100698.70;109964;1276;21882;-64
2023/10/31 00:22:55;;;;;;;7.00;2.90;;;;;;;21.01;69.13;100696.41;109953;1280;21999;-60
2023/10/31 00:25:20;;;;;;;10.30;3.10;;;;;;;21.00;69.22;100699.52;109963;1286;21921;-60
2023/10/31 00:27:46;;;;;;;6.80;2.70;;;;;;;20.99;68.88;100697.11;109964;1282;21998;-60
2023/10/31 00:30:12;;;;;;;9.30;3.00;;;;;;;20.97;69.55;100696.48;109961;1277;21997;-59
2023/10/31 00:32:37;;;;;;;8.40;3.70;;;;;;;20.96;69.88;100692.25;109965;1277;21933;-61
2023/10/31 00:35:03;;;;;;;7.00;3.10;;;;;;;20.95;69.74;100692.47;109957;1286;21931;-61
2023/10/31 00:37:29;;;;;;;7.90;3.30;;;;;;;20.94;69.52;100686.63;109943;1284;22486;-64
2023/10/31 00:39:55;;;;;;;6.90;2.50;;;;;;;20.94;69.35;100683.96;109973;1286;21940;-60
2023/10/31 00:42:20;;;;;;;8.30;2.70;;;;;;;20.93;69.29;100680.08;109963;1286;21922;-62
2023/10/31 00:44:46;;;;;;;14.60;3.50;;;;;;;20.91;69.35;100680.00;109952;1286;21977;-60
2023/10/31 00:47:11;;;;;;;9.30;3.00;;;;;;;20.92;69.27;100678.17;109958;1284;21919;-63
2023/10/31 00:49:37;;;;;;;8.10;3.10;;;;;;;20.93;69.12;100679.04;109945;1283;22451;-60
2023/10/31 00:52:03;;;;;;;9.30;2.60;;;;;;;20.92;69.16;100675.69;109956;1280;22015;-60
2023/10/31 00:54:29;;;;;;;8.70;3.90;;;;;;;20.88;69.32;100676.59;109952;1286;21957;-63
2023/10/31 00:56:54;;;;;;;9.80;3.30;;;;;;;20.85;69.45;100677.44;109947;1286;22022;-60
2023/10/31 00:59:20;;;;;;;7.10;3.30;;;;;;;20.83;69.47;100676.65;109950;1278;21941;-60
2023/10/31 01:01:45;;;;;;;10.70;3.00;;;;;;;20.83;69.62;100675.08;109955;1284;21905;-60
2023/10/31 01:04:11;;;;;;;7.50;2.80;;;;;;;20.82;69.54;100677.07;109945;1280;21962;-60
2023/10/31 01:06:42;;;;;;;7.00;3.00;;;;;;;20.82;69.71;100674.21;109953;1286;21923;-60
2023/10/31 01:09:09;;;;;;;7.10;2.60;;;;;;;20.81;69.77;100676.39;109958;1277;22004;-63
2023/10/31 01:11:35;;;;;;;11.50;3.20;;;;;;;20.79;69.62;100676.48;109971;1281;21863;-63
2023/10/31 01:14:01;;;;;;;7.80;3.20;;;;;;;20.78;69.80;100676.20;109977;1278;22493;-63
2023/10/31 01:16:27;;;;;;;8.30;3.20;;;;;;;20.80;69.66;100676.10;109966;1281;21873;-63
2023/10/31 01:18:52;;;;;;;9.60;3.30;;;;;;;20.79;70.00;100671.52;109958;1286;21924;-62
2023/10/31 01:21:18;;;;;;;10.30;3.10;;;;;;;20.78;70.04;100669.77;109936;1286;21996;-62
2023/10/31 01:23:43;;;;;;;8.10;3.50;;;;;;;20.78;70.08;100673.33;109910;1279;21941;-61
2023/10/31 01:26:09;;;;;;;11.60;3.40;;;;;;;20.79;70.38;100670.95;109916;1284;22006;-61
2023/10/31 01:28:34;;;;;;;10.60;3.20;;;;;;;20.79;70.80;100668.45;109916;1287;21858;-62
2023/10/31 01:31:00;;;;;;;9.00;3.40;;;;;;;20.81;70.54;100671.04;109915;1287;22031;-62
2023/10/31 01:33:26;;;;;;;7.80;2.70;;;;;;;20.84;70.59;100670.20;109913;1273;21953;-61
2023/10/31 01:35:51;;;;;;;9.00;2.90;;;;;;;20.85;70.96;100670.52;109911;1287;22051;-62
2023/10/31 01:38:17;;;;;;;6.20;2.30;;;;;;;20.88;71.04;100665.89;109906;1284;21869;-62
2023/10/31 01:40:43;;;;;;;8.80;2.30;;;;;;;20.91;71.13;100659.84;109892;1287;22027;-62
2023/10/31 01:43:08;;;;;;;11.60;2.60;;;;;;;20.93;71.22;100656.71;109917;1280;21919;-62
2023/10/31 01:45:34;;;;;;;9.40;2.30;;;;;;;20.93;71.41;100659.02;109902;1287;21956;-62
2023/10/31 01:47:59;;;;;;;8.00;2.70;;;;;;;20.92;71.74;100656.05;109905;1280;21918;-62
2023/10/31 01:50:25;;;;;;;8.00;2.20;;;;;;;20.92;71.76;100657.11;109873;1280;21946;-63
2023/10/31 01:52:51;;;;;;;6.70;2.10;;;;;;;20.93;71.57;100654.42;109922;1287;21913;-64
2023/10/31 01:55:17;;;;;;;8.20;2.40;;;;;;;20.95;71.23;100655.02;109917;1287;21939;-62
2023/10/31 01:57:44;;;;;;;8.80;2.70;;;;;;;20.97;71.22;100654.92;109889;1287;21984;-62
2023/10/31 02:00:11;;;;;;;6.20;2.00;;;;;;;21.00;70.71;100652.61;109928;1281;21999;-62
2023/10/31 02:02:37;;;;;;;5.30;2.30;;;;;;;20.99;70.71;100648.40;109955;1286;22003;-63
2023/10/31 02:05:02;;;;;;;8.90;2.30;;;;;;;20.94;70.88;100647.75;109845;1286;22064;-62
2023/10/31 02:07:28;;;;;;;10.00;2.60;;;;;;;20.89;70.89;100648.35;109914;1286;21929;-64
2023/10/31 02:09:53;;;;;;;7.40;2.00;;;;;;;20.88;70.99;100645.73;109911;1276;21958;-62
2023/10/31 02:12:35;;;;;;;7.20;2.00;;;;;;;20.87;70.95;100644.02;109897;1287;21943;-62
2023/10/31 02:15:01;;;;;;;9.40;2.20;;;;;;;20.92;70.53;100643.03;109904;1287;21964;-63
2023/10/31 02:17:27;;;;;;;9.00;2.30;;;;;;;20.92;70.56;100641.27;109904;1287;21931;-63
2023/10/31 02:19:53;;;;;;;6.30;1.90;;;;;;;20.91;70.45;100645.61;109901;1280;21971;-63
2023/10/31 02:22:18;;;;;;;5.00;1.50;;;;;;;20.90;70.20;100644.58;109899;1287;21957;-63
2023/10/31 02:24:44;;;;;;;7.00;2.20;;;;;;;20.87;70.19;100642.73;109894;1287;21987;-63
2023/10/31 02:27:09;;;;;;;9.30;2.70;;;;;;;20.86;70.39;100644.05;109912;1287;21939;-62
2023/10/31 02:29:35;;;;;;;8.40;1.90;;;;;;;20.84;70.39;100648.77;109915;1286;21865;-64
2023/10/31 02:32:01;;;;;;;6.40;2.00;;;;;;;20.76;70.83;100655.77;109910;1275;21906;-63
2023/10/31 02:34:26;;;;;;;6.80;1.60;;;;;;;20.71;70.99;100655.66;109913;1287;21944;-64
2023/10/31 02:36:52;;;;;;;7.10;2.50;;;;;;;20.69;71.02;100652.17;109905;1287;21912;-63
2023/10/31 02:39:17;;;;;;;5.50;1.90;;;;;;;20.68;71.20;100650.83;109904;1287;21944;-63
2023/10/31 02:41:43;;;;;;;8.40;2.10;;;;;;;20.71;70.83;100648.15;109917;1281;21934;-62
2023/10/31 02:44:09;;;;;;;5.00;1.80;;;;;;;20.75;70.76;100647.27;109911;1283;22402;-63
2023/10/31 02:46:38;;;;;;;7.00;2.10;;;;;;;20.74;70.74;100647.09;109925;1280;21950;-63
2023/10/31 02:49:03;;;;;;;5.20;2.00;;;;;;;20.72;71.04;100648.83;109929;1286;22075;-65
2023/10/31 02:51:29;;;;;;;7.90;1.80;;;;;;;20.74;71.00;100646.59;109926;1277;21938;-65
2023/10/31 02:53:54;;;;;;;5.80;1.70;;;;;;;20.70;71.33;100650.58;109933;1286;21966;-64
2023/10/31 02:56:20;;;;;;;6.70;2.90;;;;;;;20.68;71.65;100646.89;109911;1276;21953;-65
2023/10/31 02:58:46;;;;;;;4.80;1.80;;;;;;;20.68;71.90;100643.32;109918;1280;21945;-65
2023/10/31 03:01:11;;;;;;;5.60;1.70;;;;;;;20.68;71.87;100641.55;109905;1280;21926;-63
2023/10/31 03:03:37;;;;;;;7.10;1.60;;;;;;;20.76;72.40;100640.45;109910;1286;21975;-63
2023/10/31 03:06:04;;;;;;;5.10;1.80;;;;;;;20.81;72.25;100635.56;109928;1283;22020;-63
2023/10/31 03:08:30;;;;;;;5.90;2.20;;;;;;;20.84;72.51;100637.23;109916;1277;21926;-63
2023/10/31 03:10:55;;;;;;;8.80;2.30;;;;;;;20.84;72.30;100637.55;109919;1286;21969;-65
2023/10/31 03:13:21;;;;;;;5.40;2.40;;;;;;;20.84;72.02;100637.71;109923;1286;22071;-63
2023/10/31 03:15:47;;;;;;;8.50;2.30;;;;;;;20.84;72.15;100638.09;109920;1286;22010;-66
2023/10/31 03:18:14;;;;;;;9.40;2.40;;;;;;;20.83;71.97;100643.67;109930;1286;21999;-63
2023/10/31 03:20:40;;;;;;;8.50;2.90;;;;;;;20.81;71.87;100645.03;109919;1286;21931;-66
2023/10/31 03:23:06;;;;;;;5.50;1.80;;;;;;;20.78;71.61;100646.56;109911;1284;21955;-66
2023/10/31 03:25:31;;;;;;;5.70;2.10;;;;;;;20.75;71.56;100648.28;109936;1283;21958;-63
2023/10/31 03:27:57;;;;;;;5.60;2.00;;;;;;;20.75;71.65;100650.81;109935;1286;21963;-63
2023/10/31 03:30:22;;;;;;;4.80;1.70;;;;;;;20.75;71.37;100647.81;109945;1275;22055;-64
2023/10/31 03:32:48;;;;;;;6.50;2.00;;;;;;;20.74;71.03;100651.60;109913;1273;21967;-63
2023/10/31 03:35:14;;;;;;;8.30;3.10;;;;;;;20.72;70.86;100652.91;109858;1286;22425;-64
2023/10/31 03:37:41;;;;;;;7.20;2.70;;;;;;;20.69;70.45;100651.30;109971;1279;21873;-65
2023/10/31 03:40:10;;;;;;;7.70;2.60;;;;;;;20.64;69.97;100654.58;109962;1286;21941;-64
2023/10/31 03:42:36;;;;;;;6.10;2.40;;;;;;;20.57;69.66;100652.98;109976;1286;21915;-66
2023/10/31 03:45:02;;;;;;;8.50;2.80;;;;;;;20.48;69.44;100654.10;109943;1286;22014;-64
2023/10/31 03:47:27;;;;;;;3.90;1.80;;;;;;;20.41;69.19;100654.48;109962;1283;21953;-65
2023/10/31 03:49:53;;;;;;;6.50;1.90;;;;;;;20.33;69.06;100652.17;109959;1286;21860;-63
2023/10/31 03:52:19;;;;;;;6.30;3.00;;;;;;;20.25;69.05;100651.67;109958;1286;22406;-66
2023/10/31 03:54:45;;;;;;;6.00;2.00;;;;;;;20.18;68.87;100652.36;109955;1286;22005;-66
2023/10/31 03:57:11;;;;;;;4.90;2.30;;;;;;;20.11;68.77;100652.35;109942;1286;21934;-67
2023/10/31 03:59:39;;;;;;;4.60;2.00;;;;;;;20.03;68.51;100650.58;109959;1279;21978;-63
2023/10/31 04:02:04;;;;;;;6.70;2.10;;;;;;;19.94;68.44;100647.77;109955;1286;21899;-65
2023/10/31 04:04:30;;;;;;;5.90;2.00;;;;;;;19.89;68.56;100647.48;109969;1280;22021;-66
2023/10/31 04:06:56;;;;;;;5.20;2.40;;;;;;;19.84;68.54;100650.20;109949;1286;21964;-66
2023/10/31 04:09:21;;;;;;;5.40;2.60;;;;;;;19.80;68.82;100651.27;109972;1286;21993;-64
2023/10/31 04:11:47;;;;;;;4.60;1.80;;;;;;;19.77;68.86;100649.25;109941;1286;21923;-64
2023/10/31 04:14:12;;;;;;;4.10;1.70;;;;;;;19.76;69.13;100646.08;109946;1286;21948;-66
2023/10/31 04:16:45;;;;;;;2.60;1.60;;;;;;;19.76;69.37;100649.45;109956;1286;21856;-64
2023/10/31 04:19:13;;;;;;;3.60;1.90;;;;;;;19.78;69.64;100646.55;109897;1287;21969;-65
2023/10/31 04:21:39;;;;;;;3.10;2.00;;;;;;;19.80;69.86;100645.22;109893;1286;21939;-64
2023/10/31 04:24:05;;;;;;;4.20;2.40;;;;;;;19.74;70.90;100648.31;109902;1286;21961;-63
2023/10/31 04:26:30;;;;;;;5.00;2.50;;;;;;;19.73;71.37;100648.00;109932;1278;22395;-66
2023/10/31 04:28:56;;;;;;;5.20;2.50;;;;;;;19.76;71.76;100649.48;109953;1286;21942;-64
2023/10/31 04:31:22;;;;;;;4.50;2.80;;;;;;;19.81;72.08;100648.70;109974;1279;21950;-63
2023/10/31 04:33:47;;;;;;;5.40;3.00;;;;;;;19.87;72.51;100647.03;109958;1286;21972;-63
2023/10/31 04:36:13;;;;;;;5.60;3.30;;;;;;;19.94;72.74;100650.81;109952;1273;21935;-63
2023/10/31 04:38:39;;;;;;;5.40;3.20;;;;;;;20.04;73.04;100651.08;109940;1286;21988;-67
2023/10/31 04:41:04;;;;;;;8.90;3.20;;;;;;;20.12;73.21;100656.18;109959;1286;21932;-63
2023/10/31 04:43:30;;;;;;;4.30;3.10;;;;;;;20.20;73.36;100653.71;109976;1286;21946;-63
2023/10/31 04:45:55;;;;;;;8.70;3.70;;;;;;;20.28;73.60;100655.29;109955;1286;21911;-66
2023/10/31 04:48:21;;;;;;;5.50;3.40;;;;;;;20.36;73.71;100658.78;109951;1283;22007;-64
2023/10/31 04:50:47;;;;;;;6.40;3.90;;;;;;;20.42;73.97;100657.78;109954;1286;21925;-67
2023/10/31 04:53:12;;;;;;;7.20;4.00;;;;;;;20.49;74.20;100654.43;109948;1286;21983;-66
2023/10/31 04:55:38;;;;;;;7.60;3.80;;;;;;;20.55;74.33;100656.96;109960;1286;21929;-63
2023/10/31 04:58:04;;;;;;;7.50;3.90;;;;;;;20.60;74.40;100661.17;109933;1273;21966;-66
2023/10/31 05:00:30;;;;;;;6.40;3.70;;;;;;;20.67;74.43;100662.11;109941;1283;21926;-66
2023/10/31 05:02:56;;;;;;;6.70;3.90;;;;;;;20.72;74.43;100663.98;109955;1286;21839;-62
2023/10/31 05:05:22;;;;;;;7.40;4.00;;;;;;;20.76;74.54;100663.61;109961;1279;21973;-67
2023/10/31 05:07:47;;;;;;;11.70;4.10;;;;;;;20.79;74.49;100662.77;109970;1286;21905;-63
2023/10/31 05:10:13;;;;;;;9.60;4.80;;;;;;;20.80;74.78;100659.14;109900;1286;21971;-66
2023/10/31 05:12:39;;;;;;;6.50;3.70;;;;;;;20.84;75.09;100663.08;109909;1280;21873;-64
2023/10/31 05:15:06;;;;;;;11.90;4.90;;;;;;;20.86;75.40;100662.06;109901;1285;21953;-63
2023/10/31 05:17:32;;;;;;;9.40;4.30;;;;;;;20.88;75.70;100663.56;109954;1283;22398;-66
2023/10/31 05:19:58;;;;;;;7.90;4.50;;;;;;;20.90;75.35;100665.59;109905;1286;21984;-64
2023/10/31 05:22:23;;;;;;;9.60;5.40;;;;;;;20.93;75.45;100665.23;109911;1283;21976;-67
2023/10/31 05:24:49;;;;;;;9.60;4.90;;;;;;;20.97;75.63;100668.84;109948;1286;21974;-67
2023/10/31 05:27:14;;;;;;;9.90;5.30;;;;;;;21.01;76.10;100667.91;109917;1283;21961;-67
2023/10/31 05:29:40;;;;;;;9.60;4.40;;;;;;;21.05;75.73;100673.23;109936;1286;22163;-67
2023/10/31 05:32:06;;;;;;;12.20;5.30;;;;;;;21.09;75.84;100677.10;109929;1286;21966;-67
2023/10/31 05:34:31;;;;;;;13.50;5.40;;;;;;;21.14;76.67;100678.86;109875;1286;21951;-63
2023/10/31 05:36:57;;;;;;;9.80;5.40;;;;;;;21.18;76.55;100679.34;109918;1276;22212;-66
2023/10/31 05:39:22;;;;;;;9.70;5.80;;;;;;;21.24;76.58;100675.81;109927;1286;21933;-63
2023/10/31 05:41:48;;;;;;;12.40;5.70;;;;;;;21.30;76.65;100677.30;109909;1286;21868;-64
2023/10/31 05:44:13;;;;;;;12.90;6.00;;;;;;;21.35;76.76;100675.94;109865;1279;22010;-67
2023/10/31 05:46:39;;;;;;;11.50;5.90;;;;;;;21.41;76.91;100674.40;109920;1286;22088;-66
2023/10/31 05:49:08;;;;;;;13.10;6.00;;;;;;;21.45;77.02;100673.29;109945;1273;21952;-64
2023/10/31 05:51:35;;;;;;;13.50;6.80;;;;;;;21.49;77.09;100676.29;109952;1276;22144;-64
2023/10/31 05:54:01;;;;;;;10.50;6.40;;;;;;;21.53;77.08;100681.42;109890;1286;21936;-66
2023/10/31 05:56:26;;;;;;;15.40;7.40;;;;;;;21.59;76.87;100678.46;109958;1279;21922;-65
2023/10/31 05:58:52;;;;;;;16.60;7.70;;;;;;;21.71;76.38;100674.98;109948;1279;22030;-65
2023/10/31 06:01:17;;;;;;;14.60;7.30;;;;;;;21.76;76.36;100676.15;109940;1286;21922;-64
2023/10/31 06:03:43;;;;;;;18.00;7.80;;;;;;;21.80;76.45;100676.11;109955;1286;22004;-66
2023/10/31 06:06:10;;;;;;;11.60;6.30;;;;;;;21.83;76.31;100677.00;109963;1286;21945;-66
2023/10/31 06:08:35;;;;;;;15.90;8.40;;;;;;;21.88;76.37;100679.77;109947;1286;22307;-65
2023/10/31 06:11:01;;;;;;;13.90;7.40;;;;;;;21.94;76.31;100679.64;109964;1286;22042;-65
2023/10/31 06:13:27;;;;;;;12.40;7.50;;;;;;;21.99;76.27;100677.92;109923;1286;22086;-64
2023/10/31 06:15:55;;;;;;;12.70;7.20;;;;;;;22.02;76.29;100676.33;109942;1286;21990;-64
2023/10/31 06:18:21;;;;;;;11.20;7.70;;;;;;;21.99;76.86;100676.12;109956;1286;21945;-64
2023/10/31 06:20:47;;;;;;;14.20;7.60;;;;;;;22.00;76.85;100674.48;109949;1285;21914;-65
2023/10/31 06:23:12;;;;;;;14.80;7.60;;;;;;;22.00;77.08;100671.80;109948;1286;21985;-64
2023/10/31 06:25:38;;;;;;;15.60;7.20;;;;;;;22.04;77.13;100676.23;109932;1286;21950;-65
2023/10/31 06:28:04;;;;;;;13.60;7.00;;;;;;;22.09;76.98;100678.20;109952;1282;22038;-65
2023/10/31 06:30:29;;;;;;;14.70;6.80;;;;;;;22.12;76.92;100676.66;109946;1279;21844;-64
2023/10/31 06:32:55;;;;;;;16.50;7.70;;;;;;;22.16;76.81;100673.42;109976;1279;21983;-64
2023/10/31 06:35:24;;;;;;;14.70;6.60;;;;;;;22.22;77.12;100672.73;109947;1273;21940;-64
2023/10/31 06:37:51;;;;;;;12.50;6.70;;;;;;;22.27;77.05;100669.76;109942;1275;21995;-64
2023/10/31 06:40:16;;;;;;;15.60;7.60;;;;;;;22.29;77.74;100667.52;109967;1279;22018;-65
2023/10/31 06:42:42;;;;;;;19.50;7.80;;;;;;;22.37;77.39;100662.59;109941;1275;22040;-63
2023/10/31 06:45:09;;;;;;;12.60;7.50;;;;;;;22.43;77.48;100660.46;109940;1286;21927;-63
2023/10/31 06:47:34;;;;;;;12.60;6.50;;;;;;;22.46;76.94;100662.08;109953;1279;21868;-66
2023/10/31 06:50:03;;;;;;;16.90;8.30;;;;;;;22.44;76.86;100657.73;109959;1286;21941;-62
2023/10/31 06:52:28;;;;;;;17.40;7.10;;;;;;;22.46;76.90;100659.73;109961;1275;21882;-63
2023/10/31 06:54:54;;;;;;;11.90;6.70;;;;;;;22.47;76.81;100663.64;109943;1286;21941;-62
2023/10/31 06:57:19;;;;;;;15.20;6.40;;;;;;;22.44;75.88;100658.08;109954;1273;22378;-62
2023/10/31 06:59:46;;;;;;;12.60;7.00;;;;;;;22.40;75.91;100652.20;109951;1286;21959;-62
2023/10/31 07:02:11;;;;;;;16.70;7.30;;;;;;;22.40;75.61;100653.61;109966;1286;21858;-62
2023/10/31 07:04:37;;;;;;;13.40;6.70;;;;;;;22.41;75.36;100654.30;109913;1278;21989;-62
2023/10/31 07:07:03;;;;;;;17.60;6.70;;;;;;;22.40;75.42;100652.73;109958;1286;21897;-65
2023/10/31 07:09:29;;;;;;;15.00;6.80;;;;;;;22.38;75.74;100651.64;109955;1286;21918;-67
2023/10/31 07:11:54;;;;;;;13.40;7.40;;;;;;;22.36;75.47;100651.73;109895;1276;21978;-67
2023/10/31 07:14:20;;;;;;;13.00;6.30;;;;;;;22.35;75.14;100646.98;109883;1287;21941;-61
2023/10/31 07:16:45;;;;;;;13.70;6.80;;;;;;;22.33;75.16;100646.34;109886;1282;22042;-62
2023/10/31 07:19:11;;;;;;;12.00;6.30;;;;;;;22.32;75.00;100645.67;109907;1279;21881;-62
2023/10/31 07:21:37;;;;;;;14.20;6.00;;;;;;;22.33;75.26;100648.15;109909;1287;21936;-61
2023/10/31 07:24:02;;;;;;;13.30;6.50;;;;;;;22.37;75.38;100649.35;109941;1276;21938;-66
2023/10/31 07:26:28;;;;;;;14.20;6.20;;;;;;;22.44;75.53;100651.46;109970;1273;21923;-61
2023/10/31 07:28:54;;;;;;;13.10;6.40;;;;;;;22.53;75.32;100656.34;109910;1286;22011;-61
2023/10/31 07:31:19;;;;;;;14.40;6.20;;;;;;;22.63;75.66;100655.58;109951;1273;21936;-67
2023/10/31 07:33:45;;;;;;;15.70;5.90;;;;;;;22.78;75.78;100657.77;109900;1286;22013;-67
2023/10/31 07:36:11;;;;;;;12.40;6.10;;;;;;;22.95;76.04;100659.26;109971;1279;22016;-65
2023/10/31 07:38:37;;;;;;;12.40;5.90;;;;;;;23.12;76.14;100654.85;109943;1286;21928;-67
2023/10/31 07:41:03;;;;;;;13.50;6.10;;;;;;;23.25;75.71;100652.45;109940;1279;21955;-60
2023/10/31 07:43:29;;;;;;;14.50;5.50;;;;;;;23.37;75.43;100651.91;109961;1279;21998;-60
2023/10/31 07:45:55;;;;;;;13.70;5.50;;;;;;;23.46;74.71;100650.98;109941;1286;21960;-67
2023/10/31 07:48:20;;;;;;;13.90;6.10;;;;;;;23.55;74.51;100648.46;109910;1279;21958;-60
2023/10/31 07:50:46;;;;;;;13.00;5.70;;;;;;;23.65;74.16;100647.33;109960;1286;21926;-60
2023/10/31 07:53:11;;;;;;;8.80;5.30;;;;;;;23.74;73.83;100649.09;109973;1276;21981;-67
2023/10/31 07:55:37;;;;;;;10.70;4.80;;;;;;;23.82;73.26;100644.67;109973;1286;21877;-60
2023/10/31 07:58:02;;;;;;;9.90;5.00;;;;;;;23.90;72.96;100642.34;109971;1284;21926;-60
2023/10/31 08:00:28;;;;;;;14.00;5.30;;;;;;;24.00;72.74;100647.64;109952;1286;21950;-68
2023/10/31 08:02:54;;;;;;;11.20;5.40;;;;;;;24.10;72.50;100642.88;109894;1286;21926;-67
2023/10/31 08:05:19;;;;;;;9.20;4.80;;;;;;;24.20;72.27;100639.00;109969;1278;21998;-60
2023/10/31 08:07:45;;;;;;;10.80;4.70;;;;;;;24.32;71.82;100642.18;109951;1286;21939;-60
2023/10/31 08:10:11;;;;;;;10.20;4.80;;;;;;;24.42;71.32;100639.36;109929;1279;21985;-62
2023/10/31 08:12:37;;;;;;;9.00;5.00;;;;;;;24.53;71.29;100637.01;109954;1286;22085;-68
2023/10/31 08:15:02;;;;;;;12.00;5.30;;;;;;;24.62;70.67;100631.04;109956;1274;21933;-63
2023/10/31 08:17:28;;;;;;;13.00;5.10;;;;;;;24.72;70.24;100634.73;109945;1283;21948;-61
2023/10/31 08:19:54;;;;;;;10.80;4.40;;;;;;;24.79;69.56;100632.77;109953;1286;21876;-69
2023/10/31 08:22:19;;;;;;;13.20;4.00;;;;;;;24.85;69.01;100633.09;109975;1286;21980;-60
2023/10/31 08:24:45;;;;;;;12.00;4.40;;;;;;;24.92;68.59;100630.14;109957;1286;21945;-59
2023/10/31 08:27:11;;;;;;;9.50;4.40;;;;;;;24.92;68.01;100632.78;109943;1279;21910;-60
2023/10/31 08:29:36;;;;;;;8.30;4.20;;;;;;;24.93;67.97;100631.98;109973;1273;21973;-60
2023/10/31 08:32:02;;;;;;;10.10;4.60;;;;;;;25.02;68.69;100626.02;109959;1283;22001;-68
2023/10/31 08:34:28;;;;;;;9.50;4.20;;;;;;;25.19;68.95;100627.39;109956;1279;21938;-70
2023/10/31 08:36:56;;;;;;;10.70;4.40;;;;;;;25.32;67.49;100621.44;109948;1286;21926;-59
2023/10/31 08:39:22;;;;;;;9.80;4.10;;;;;;;25.42;66.82;100615.92;109919;1273;22014;-60
2023/10/31 08:41:51;;;;;;;12.90;4.80;;;;;;;25.52;66.86;100616.96;109931;1286;22093;-61
2023/10/31 08:44:17;;;;;;;10.80;4.90;;;;;;;25.65;66.73;100614.98;109868;1286;21942;-60
2023/10/31 08:46:42;;;;;;;10.90;4.80;;;;;;;25.74;66.10;100611.10;109910;1286;22336;-70
2023/10/31 08:49:08;;;;;;;10.90;4.50;;;;;;;25.82;65.83;100609.64;109904;1286;22008;-69
2023/10/31 08:51:34;;;;;;;13.20;5.10;;;;;;;25.91;65.53;100605.61;109862;1286;21866;-61
2023/10/31 08:53:59;;;;;;;10.20;5.00;;;;;;;26.00;65.25;100601.31;109926;1286;21934;-72
2023/10/31 08:56:27;;;;;;;13.80;4.10;;;;;;;26.08;64.95;100592.83;109904;1285;22009;-72
2023/10/31 08:58:53;;;;;;;11.20;3.90;;;;;;;26.19;63.73;100592.01;109904;1283;22434;-72
2023/10/31 09:01:19;;;;;;;12.40;4.40;;;;;;;26.30;62.84;100590.82;109889;1275;22021;-60
2023/10/31 09:03:45;;;;;;;11.30;4.30;;;;;;;26.37;62.56;100584.95;109938;1279;21980;-60
2023/10/31 09:06:10;;;;;;;9.60;4.10;;;;;;;26.48;61.87;100581.23;109934;1286;21994;-61
2023/10/31 09:08:38;;;;;;;15.20;5.10;;;;;;;26.55;61.41;100583.95;109914;1286;22015;-72
2023/10/31 09:11:07;;;;;;;13.80;6.30;;;;;;;26.56;61.30;100575.00;109816;1286;21949;-60
2023/10/31 09:13:32;;;;;;;12.00;5.30;;;;;;;26.64;61.36;100570.84;109954;1286;21957;-72
2023/10/31 09:15:59;;;;;;;10.70;5.20;;;;;;;26.71;60.92;100569.55;109936;1286;21951;-73
2023/10/31 09:18:24;;;;;;;10.10;4.60;;;;;;;26.80;60.49;100564.75;109884;1287;21950;-72
2023/10/31 09:20:50;;;;;;;10.50;4.30;;;;;;;26.84;59.14;100558.71;109914;1287;21913;-61
2023/10/31 09:23:17;;;;;;;9.90;4.70;;;;;;;26.83;59.22;100556.48;109929;1286;21971;-62
2023/10/31 09:25:43;;;;;;;15.20;5.30;;;;;;;26.81;59.14;100554.09;109944;1283;22350;-66
2023/10/31 09:28:09;;;;;;;10.80;4.10;;;;;;;26.81;58.92;100551.21;109914;1287;21997;-73
2023/10/31 09:30:35;;;;;;;7.80;4.00;;;;;;;26.87;59.13;100547.17;109859;1287;21877;-73
2023/10/31 09:33:00;;;;;;;11.90;4.40;;;;;;;26.93;59.22;100544.50;109868;1285;21943;-73
2023/10/31 09:35:26;;;;;;;13.00;5.40;;;;;;;27.02;59.07;100542.69;109855;1287;21994;-61
2023/10/31 09:37:52;;;;;;;10.00;4.80;;;;;;;27.10;58.63;100540.84;109898;1287;21913;-61
2023/10/31 09:40:18;;;;;;;9.80;4.10;;;;;;;27.12;58.13;100540.15;109898;1287;22008;-73
2023/10/31 09:42:44;;;;;;;12.80;4.50;;;;;;;27.13;57.94;100539.66;109869;1287;21918;-60
2023/10/31 09:45:10;;;;;;;10.40;4.70;;;;;;;27.18;58.31;100536.04;109894;1287;21896;-61
2023/10/31 09:47:36;;;;;;;9.70;4.60;;;;;;;27.23;57.98;100530.66;109910;1287;21901;-61
2023/10/31 09:50:01;;;;;;;10.60;5.10;;;;;;;27.21;57.42;100531.72;109856;1287;21959;-61
2023/10/31 09:52:27;;;;;;;12.80;5.80;;;;;;;27.18;57.85;100529.21;109908;1279;21950;-73
2023/10/31 09:54:52;;;;;;;10.50;5.00;;;;;;;27.21;57.76;100525.92;109849;1284;21859;-60
2023/10/31 09:57:18;;;;;;;14.70;6.80;;;;;;;27.18;57.41;100524.55;109888;1287;21920;-73
2023/10/31 09:59:44;;;;;;;12.30;5.80;;;;;;;27.11;57.26;100516.42;109903;1287;22354;-62
2023/10/31 10:02:10;;;;;;;11.50;5.30;;;;;;;27.03;57.10;100508.84;109951;1286;21952;-72
2023/10/31 10:04:37;;;;;;;10.70;5.70;;;;;;;26.98;57.46;100504.11;109937;1286;21983;-61
2023/10/31 10:07:03;;;;;;;15.80;6.30;;;;;;;26.95;57.23;100504.41;109955;1283;21869;-73
2023/10/31 10:09:29;;;;;;;12.00;5.60;;;;;;;26.89;57.47;100499.48;109922;1285;22445;-61
2023/10/31 10:12:06;;;;;;;19.10;5.40;;;;;;;26.89;57.40;100492.13;109927;1286;21980;-61
2023/10/31 10:14:32;;;;;;;10.00;5.10;;;;;;;26.92;57.50;100490.04;109921;1283;21925;-71
2023/10/31 10:16:58;;;;;;;14.90;6.20;;;;;;;26.97;57.20;100483.55;109910;1286;21985;-60
2023/10/31 10:19:23;;;;;;;11.70;5.60;;;;;;;26.99;57.13;100480.98;109927;1286;21966;-72
2023/10/31 10:21:53;;;;;;;11.50;5.90;;;;;;;26.99;56.80;100479.36;109910;1286;22503;-69
2023/10/31 10:24:20;;;;;;;14.80;5.40;;;;;;;26.94;56.82;100479.62;109907;1283;21956;-58
2023/10/31 10:26:46;;;;;;;10.80;4.30;;;;;;;26.90;56.70;100477.42;109924;1286;21962;-58
2023/10/31 10:29:12;;;;;;;13.50;4.50;;;;;;;26.84;56.70;100476.63;109914;1286;21962;-72
2023/10/31 10:31:37;;;;;;;12.30;4.70;;;;;;;26.82;56.76;100477.36;109901;1281;21999;-59
2023/10/31 10:34:03;;;;;;;11.20;5.60;;;;;;;26.79;56.96;100468.55;109920;1286;22005;-59
2023/10/31 10:36:32;;;;;;;16.60;5.50;;;;;;;26.81;57.24;100464.26;109908;1286;21971;-59
2023/10/31 10:38:58;;;;;;;13.90;5.20;;;;;;;26.85;57.27;100457.29;109939;1283;21980;-71
2023/10/31 10:41:27;;;;;;;9.70;4.30;;;;;;;26.91;57.32;100456.67;109821;1286;22008;-59
2023/10/31 10:43:57;;;;;;;12.40;5.20;;;;;;;27.02;57.36;100456.48;109928;1286;21842;-71
2023/10/31 10:46:24;;;;;;;17.30;5.10;;;;;;;27.16;57.27;100455.17;109952;1286;21996;-73
2023/10/31 10:48:50;;;;;;;9.70;4.20;;;;;;;27.26;56.88;100449.90;109923;1286;21977;-59
2023/10/31 10:51:22;;;;;;;11.40;4.80;;;;;;;27.26;56.42;100439.75;109882;1286;21973;-59
2023/10/31 10:54:26;;;;;;;11.00;4.90;;;;;;;27.23;56.19;100442.94;109925;1283;21994;-73
2023/10/31 10:56:58;;;;;;;10.00;4.80;;;;;;;27.16;56.36;100443.46;109787;1286;22435;-72
2023/10/31 10:59:30;;;;;;;12.80;4.70;;;;;;;27.16;56.25;100442.20;109845;1286;22281;-71
2023/10/31 11:01:56;;;;;;;9.30;4.20;;;;;;;27.15;56.36;100442.09;109927;1286;21917;-71
2023/10/31 11:04:23;;;;;;;11.60;4.20;;;;;;;27.11;56.24;100431.08;109786;1285;22000;-73
2023/10/31 11:06:48;;;;;;;18.90;4.90;;;;;;;27.04;56.14;100426.80;109810;1285;22029;-71
2023/10/31 11:09:14;;;;;;;11.50;3.70;;;;;;;26.94;56.08;100427.42;109834;1287;21944;-71